Time;durP1;ratioP1;P1;durP2;ratioP2;P2;SDS_P1;SDS_P2;PMS_P1;PMS_P2;Temp;Humidity;BMP_temperature;BMP_pressure;BME280_temperature;BME280_humidity;BME280_pressure;Samples;Min_cycle;Max_cycle;Signal;HPM_P1;HPM_P2
2022/06/06 00:03:02;;;;;;;8.50;2.77;;;22.90;48.10;;;;;;8315904;28;20622;-39
2022/06/06 00:07:03;;;;;;;4.22;2.30;;;22.70;48.60;;;;;;8332339;28;20056;-41
2022/06/06 00:11:04;;;;;;;3.47;1.90;;;22.50;48.40;;;;;;8332301;28;20060;-41
2022/06/06 00:15:05;;;;;;;2.95;1.80;;;22.50;47.60;;;;;;8331544;28;20025;-41
2022/06/06 00:19:06;;;;;;;4.43;2.65;;;22.70;47.00;;;;;;8331756;28;20116;-41
2022/06/06 00:23:06;;;;;;;13.60;3.65;;;22.80;47.10;;;;;;8319915;28;20030;-41
2022/06/06 00:27:07;;;;;;;10.17;2.80;;;22.80;48.40;;;;;;8335109;28;20030;-41
2022/06/06 00:35:27;;;;;;;7.60;2.42;;;22.90;47.30;;;;;;8326116;28;20283;-41
2022/06/06 00:39:28;;;;;;;6.50;2.95;;;23.00;47.50;;;;;;8331026;28;20030;-42
2022/06/06 00:43:29;;;;;;;4.95;2.20;;;23.00;47.30;;;;;;8298887;28;20121;-43
2022/06/06 00:47:31;;;;;;;3.17;2.42;;;23.10;47.80;;;;;;8328156;28;20559;-42
2022/06/06 00:51:32;;;;;;;5.78;2.30;;;23.10;47.90;;;;;;8323443;28;20514;-43
2022/06/06 00:55:41;;;;;;;9.85;2.30;;;23.20;48.00;;;;;;8302085;28;20040;-43
2022/06/06 00:59:44;;;;;;;8.27;2.40;;;23.20;47.40;;;;;;8298540;28;20030;-42
2022/06/06 01:03:45;;;;;;;3.78;2.20;;;23.20;47.10;;;;;;8321206;28;20402;-43
2022/06/06 01:07:45;;;;;;;4.53;2.10;;;23.20;47.00;;;;;;8330824;28;20068;-43
2022/06/06 01:11:50;;;;;;;3.83;1.87;;;23.20;46.80;;;;;;8304919;28;20132;-42
2022/06/06 01:16:05;;;;;;;2.22;1.80;;;23.20;46.60;;;;;;8322991;28;20044;-41
2022/06/06 01:20:38;;;;;;;3.42;1.77;;;23.20;46.60;;;;;;8330899;28;20034;-44
2022/06/06 01:24:44;;;;;;;4.30;2.53;;;23.20;46.50;;;;;;8328697;28;20857;-45
2022/06/06 01:29:00;;;;;;;2.90;2.00;;;23.20;46.30;;;;;;8329998;28;20042;-44
2022/06/06 01:33:02;;;;;;;2.72;1.90;;;23.20;46.30;;;;;;8328932;28;20068;-44
2022/06/06 01:37:21;;;;;;;2.83;1.80;;;23.20;46.30;;;;;;8329396;28;20045;-45
2022/06/06 01:41:42;;;;;;;3.33;2.10;;;23.20;46.30;;;;;;8327794;28;20067;-41
2022/06/06 01:45:49;;;;;;;3.95;1.98;;;23.20;46.20;;;;;;8329685;28;20037;-43
2022/06/06 01:49:50;;;;;;;4.13;1.90;;;23.20;46.30;;;;;;8329967;28;20053;-43
2022/06/06 01:53:52;;;;;;;4.40;2.00;;;23.20;46.00;;;;;;8328558;28;20041;-44
2022/06/06 01:57:57;;;;;;;2.40;2.00;;;23.20;46.30;;;;;;8329096;28;20038;-43
2022/06/06 02:01:58;;;;;;;6.43;2.13;;;23.20;46.30;;;;;;8325783;28;20038;-43
2022/06/06 02:06:00;;;;;;;3.47;1.93;;;23.20;46.40;;;;;;8330133;28;20042;-43
2022/06/06 02:10:01;;;;;;;2.13;1.90;;;23.20;46.20;;;;;;8326393;28;20076;-44
2022/06/06 02:14:01;;;;;;;1.83;1.60;;;23.20;46.10;;;;;;8296991;28;20042;-42
2022/06/06 02:18:02;;;;;;;5.07;2.30;;;23.20;46.20;;;;;;8299799;28;20288;-43
2022/06/06 02:22:03;;;;;;;3.17;1.93;;;23.20;46.10;;;;;;8296108;28;20293;-44
2022/06/06 02:26:04;;;;;;;2.55;1.70;;;23.20;46.00;;;;;;8299803;28;20652;-43
2022/06/06 02:30:07;;;;;;;2.83;2.03;;;23.20;45.90;;;;;;8329065;28;20053;-43
2022/06/06 02:34:09;;;;;;;6.50;2.50;;;23.20;45.90;;;;;;8328579;28;20041;-42
2022/06/06 02:38:11;;;;;;;3.75;1.80;;;23.20;45.90;;;;;;8327926;28;20509;-43
2022/06/06 02:42:12;;;;;;;4.25;2.28;;;23.20;45.80;;;;;;8328390;28;20092;-43
2022/06/06 02:46:13;;;;;;;4.10;1.93;;;23.20;46.00;;;;;;8317862;28;20394;-44
2022/06/06 02:50:15;;;;;;;;;;;23.20;46.00;;;;;;8298182;28;20562;-43
2022/06/06 02:54:15;;;;;;;2.60;1.77;;;23.20;46.40;;;;;;8303689;28;20282;-43
2022/06/06 02:58:16;;;;;;;1.93;1.83;;;23.20;45.90;;;;;;8334703;28;20033;-43
2022/06/06 03:02:16;;;;;;;3.70;1.80;;;23.20;46.00;;;;;;8304724;28;20197;-43
2022/06/06 03:06:42;;;;;;;3.73;1.73;;;23.20;46.60;;;;;;8320415;28;20080;-43
2022/06/06 03:10:49;;;;;;;7.10;2.08;;;23.20;46.10;;;;;;8334837;28;20698;-42
2022/06/06 03:14:52;;;;;;;5.43;1.92;;;23.20;46.10;;;;;;8333068;28;20602;-42
2022/06/06 03:24:01;;;;;;;2.85;2.08;;;23.20;46.10;;;;;;8333933;28;20125;-43
2022/06/06 03:28:13;;;;;;;5.47;2.03;;;23.20;46.20;;;;;;8333254;28;20041;-42
2022/06/06 03:32:34;;;;;;;3.08;2.42;;;23.10;46.20;;;;;;8333702;28;20029;-43
2022/06/06 03:36:45;;;;;;;3.22;1.80;;;23.10;46.00;;;;;;8332139;28;20060;-42
2022/06/06 03:40:54;;;;;;;2.08;1.63;;;23.10;46.10;;;;;;8334234;28;20040;-42
2022/06/06 03:45:21;;;;;;;2.45;1.98;;;23.10;45.90;;;;;;8332248;28;20045;-42
2022/06/06 03:49:44;;;;;;;2.35;1.70;;;23.10;45.90;;;;;;8333085;28;20053;-42
2022/06/06 03:54:08;;;;;;;2.22;1.77;;;23.10;45.90;;;;;;8322981;28;20072;-42
2022/06/06 03:58:12;;;;;;;1.70;1.50;;;23.10;45.90;;;;;;8289500;28;20056;-42
2022/06/06 04:02:18;;;;;;;2.17;1.77;;;23.10;45.80;;;;;;8310132;28;20572;-43
2022/06/06 04:06:19;;;;;;;3.67;2.30;;;23.10;45.80;;;;;;8331496;28;20048;-43
2022/06/06 04:10:22;;;;;;;1.83;1.60;;;23.10;45.80;;;;;;8332743;28;20473;-43
2022/06/06 04:14:48;;;;;;;2.97;1.60;;;23.10;45.80;;;;;;8329739;28;20095;-43
2022/06/06 04:18:57;;;;;;;3.03;2.00;;;23.10;45.80;;;;;;8331703;28;20112;-43
2022/06/06 04:23:14;;;;;;;2.55;2.08;;;23.00;45.80;;;;;;8315456;28;20387;-43
2022/06/06 04:27:25;;;;;;;1.88;1.70;;;23.10;45.90;;;;;;8298797;28;20034;-43
2022/06/06 04:31:40;;;;;;;4.60;2.38;;;23.10;45.90;;;;;;8317508;28;20395;-43
2022/06/06 04:35:48;;;;;;;2.45;1.90;;;23.10;45.80;;;;;;8331797;28;20048;-44
2022/06/06 04:40:02;;;;;;;2.42;1.90;;;23.10;45.90;;;;;;8329715;28;20045;-44
2022/06/06 04:44:35;;;;;;;2.58;2.03;;;23.00;45.80;;;;;;8331470;28;20099;-43
2022/06/06 04:48:37;;;;;;;2.90;1.80;;;23.00;45.70;;;;;;8329471;28;20064;-43
2022/06/06 04:52:39;;;;;;;;;;;23.00;45.80;;;;;;8331725;28;20041;-44
2022/06/06 04:56:40;;;;;;;2.45;1.52;;;23.10;45.80;;;;;;8328641;28;19928;-43
2022/06/06 05:00:42;;;;;;;2.00;1.80;;;23.00;45.70;;;;;;8330590;28;20039;-44
2022/06/06 05:04:42;;;;;;;1.88;1.73;;;23.10;45.80;;;;;;8307186;28;20038;-44
2022/06/06 05:09:05;;;;;;;3.33;1.80;;;23.00;45.70;;;;;;8329013;28;20049;-44
2022/06/06 05:13:22;;;;;;;3.33;2.20;;;23.10;45.80;;;;;;8328730;28;20276;-43
2022/06/06 05:17:55;;;;;;;1.85;1.50;;;23.10;45.80;;;;;;8330705;28;20029;-44
2022/06/06 05:22:07;;;;;;;2.97;2.47;;;23.10;45.70;;;;;;8330110;28;20037;-44
2022/06/06 05:26:35;;;;;;;2.28;1.85;;;23.10;45.70;;;;;;8297606;28;20196;-44
2022/06/06 05:31:00;;;;;;;2.78;1.90;;;23.10;45.60;;;;;;8297094;28;20044;-44
2022/06/06 05:35:20;;;;;;;4.05;1.95;;;23.10;45.70;;;;;;8308473;28;20041;-42
2022/06/06 05:39:40;;;;;;;4.68;2.03;;;23.10;46.00;;;;;;8297523;28;20471;-43
2022/06/06 05:44:03;;;;;;;2.65;1.70;;;23.10;45.70;;;;;;8309843;28;20434;-43
2022/06/06 05:48:03;;;;;;;12.52;7.35;;;23.10;45.40;;;;;;8328658;28;20083;-42
2022/06/06 05:52:16;;;;;;;7.37;5.47;;;23.10;46.10;;;;;;8329368;28;20510;-45
2022/06/06 05:56:48;;;;;;;12.70;4.28;;;23.10;46.30;;;;;;8296974;28;20092;-42
2022/06/06 06:01:07;;;;;;;5.45;3.33;;;23.10;46.30;;;;;;8295433;28;20400;-41
2022/06/06 06:05:15;;;;;;;4.53;3.88;;;23.10;45.90;;;;;;8297250;28;20363;-41
2022/06/06 06:09:25;;;;;;;6.20;3.53;;;23.00;45.60;;;;;;8296074;28;20050;-42
2022/06/06 06:13:50;;;;;;;6.07;4.10;;;23.10;45.60;;;;;;8296694;28;20041;-41
2022/06/06 06:17:53;;;;;;;8.10;3.80;;;23.10;45.60;;;;;;8296702;28;20034;-41
2022/06/06 06:21:56;;;;;;;5.38;3.60;;;23.10;45.50;;;;;;8296416;28;20431;-41
2022/06/06 06:26:00;;;;;;;4.50;3.42;;;23.10;45.50;;;;;;8299119;28;20200;-41
2022/06/06 06:30:06;;;;;;;4.35;3.33;;;23.10;45.40;;;;;;8302836;28;20046;-41
2022/06/06 06:34:31;;;;;;;6.60;3.15;;;23.10;45.40;;;;;;8302363;28;20561;-40
2022/06/06 06:39:06;;;;;;;4.95;3.30;;;23.10;45.30;;;;;;8302349;28;20038;-41
2022/06/06 06:43:41;;;;;;;6.35;3.70;;;23.10;45.30;;;;;;8301765;28;20092;-41
2022/06/06 06:47:48;;;;;;;4.40;3.33;;;23.00;45.30;;;;;;8293751;28;20033;-41
2022/06/06 06:52:12;;;;;;;4.22;3.30;;;23.10;45.30;;;;;;8301754;28;20495;-42
2022/06/06 06:56:31;;;;;;;4.40;3.72;;;23.10;45.30;;;;;;8302111;28;20506;-41
2022/06/06 07:00:41;;;;;;;3.33;3.03;;;23.10;45.30;;;;;;8301605;28;20041;-41
2022/06/06 07:09:35;;;;;;;4.68;3.55;;;23.10;45.40;;;;;;8333548;28;20103;-42
2022/06/06 07:14:06;;;;;;;3.83;2.88;;;23.00;45.40;;;;;;8324834;28;20041;-41
2022/06/06 07:18:10;;;;;;;4.95;3.47;;;23.10;45.40;;;;;;8334278;28;20107;-41
2022/06/06 07:22:11;;;;;;;3.80;3.05;;;23.10;45.40;;;;;;8333922;28;20112;-41
2022/06/06 07:26:12;;;;;;;3.80;2.97;;;23.10;45.40;;;;;;8333746;28;20037;-42
2022/06/06 07:30:13;;;;;;;;;;;23.10;45.40;;;;;;8333600;28;20050;-41
2022/06/06 07:34:39;;;;;;;6.13;3.50;;;23.10;46.00;;;;;;8333493;28;19913;-41
2022/06/06 07:38:48;;;;;;;2.97;2.67;;;23.10;45.50;;;;;;8317356;28;20132;-41
2022/06/06 07:43:24;;;;;;;4.30;2.72;;;23.10;45.50;;;;;;8333005;28;20286;-41
2022/06/06 07:47:30;;;;;;;3.47;2.90;;;23.10;45.40;;;;;;8333475;28;20052;-41
2022/06/06 07:51:40;;;;;;;3.40;2.50;;;23.10;45.40;;;;;;8332662;28;20144;-42
2022/06/06 07:56:02;;;;;;;5.78;2.55;;;23.10;45.40;;;;;;8333127;28;20033;-40
2022/06/06 08:00:10;;;;;;;4.07;2.65;;;23.10;45.40;;;;;;8332914;28;20037;-41
2022/06/06 08:04:31;;;;;;;3.30;2.25;;;23.10;45.40;;;;;;8332429;28;20033;-41
2022/06/06 08:08:45;;;;;;;3.05;2.45;;;23.10;45.50;;;;;;8333132;28;20041;-41
2022/06/06 08:13:04;;;;;;;2.50;2.30;;;23.10;46.00;;;;;;8332154;28;20386;-41
2022/06/06 08:17:25;;;;;;;3.03;2.72;;;23.10;45.50;;;;;;8332119;28;20397;-41
2022/06/06 08:21:36;;;;;;;3.92;2.55;;;23.10;45.50;;;;;;8331603;28;20042;-41
2022/06/06 08:25:38;;;;;;;4.85;2.75;;;23.10;45.40;;;;;;8332185;28;20034;-41
2022/06/06 08:29:42;;;;;;;2.53;2.30;;;23.20;45.50;;;;;;8331795;28;20061;-41
2022/06/06 08:33:42;;;;;;;3.05;2.70;;;23.20;45.50;;;;;;8331361;28;20494;-41
2022/06/06 08:38:01;;;;;;;2.67;2.10;;;23.20;45.50;;;;;;8331468;28;20040;-41
2022/06/06 08:42:14;;;;;;;2.58;2.13;;;23.20;45.50;;;;;;8331405;28;20037;-41
2022/06/06 08:46:41;;;;;;;2.90;1.90;;;23.20;45.50;;;;;;8331420;28;20041;-42
2022/06/06 08:51:04;;;;;;;2.30;2.10;;;23.20;45.50;;;;;;8311579;28;20065;-42
2022/06/06 08:55:56;;;;;;;2.97;2.22;;;23.20;45.40;;;;;;8330467;28;20117;-42
2022/06/06 09:00:18;;;;;;;2.58;2.15;;;23.20;45.40;;;;;;8328677;28;20041;-41
2022/06/06 09:04:37;;;;;;;;;;;23.20;45.40;;;;;;8331243;28;20041;-42
2022/06/06 09:09:07;;;;;;;2.10;1.90;;;23.20;45.40;;;;;;8330858;28;20328;-42
2022/06/06 09:13:35;;;;;;;2.20;2.00;;;23.30;45.50;;;;;;8330154;28;20034;-42
2022/06/06 09:17:53;;;;;;;2.65;1.80;;;23.20;45.50;;;;;;8330419;28;20106;-42
2022/06/06 09:22:10;;;;;;;3.17;2.17;;;23.20;45.40;;;;;;8329802;28;20040;-41
2022/06/06 09:26:30;;;;;;;2.78;2.10;;;23.30;45.50;;;;;;8330305;28;20502;-41
2022/06/06 09:30:46;;;;;;;2.03;1.90;;;23.30;45.50;;;;;;8329622;28;20121;-41
2022/06/06 09:35:11;;;;;;;2.10;1.90;;;23.30;45.50;;;;;;8329996;28;20038;-42
2022/06/06 09:39:33;;;;;;;2.17;1.98;;;23.30;45.40;;;;;;8329420;28;20442;-41
2022/06/06 09:44:13;;;;;;;2.10;1.88;;;23.30;45.40;;;;;;8330286;28;20399;-42
2022/06/06 09:48:51;;;;;;;4.18;1.92;;;23.30;45.40;;;;;;8329604;28;20426;-42
2022/06/06 09:53:40;;;;;;;2.50;2.30;;;23.40;45.30;;;;;;8329586;28;20048;-42
2022/06/06 10:03:14;;;;;;;3.60;2.72;;;23.40;45.30;;;;;;8335171;28;20095;-42
2022/06/06 10:07:27;;;;;;;4.53;3.15;;;23.40;45.30;;;;;;8334151;28;20129;-42
2022/06/06 10:11:48;;;;;;;4.25;3.38;;;23.50;45.30;;;;;;8303112;28;20049;-41
2022/06/06 10:16:17;;;;;;;3.85;3.45;;;23.50;45.30;;;;;;8302888;28;20042;-42
2022/06/06 10:20:36;;;;;;;4.07;3.53;;;23.50;45.30;;;;;;8303388;28;20120;-42
2022/06/06 10:24:55;;;;;;;4.63;3.80;;;23.50;45.40;;;;;;8302603;28;20034;-41
2022/06/06 10:29:08;;;;;;;5.32;3.97;;;23.50;45.30;;;;;;8303178;28;20510;-42
2022/06/06 10:33:29;;;;;;;5.70;3.70;;;23.50;45.30;;;;;;8302616;28;20030;-41
2022/06/06 10:37:42;;;;;;;;;;;23.60;45.40;;;;;;8303046;28;20498;-42
2022/06/06 10:41:55;;;;;;;3.92;3.35;;;23.60;45.40;;;;;;8302487;28;20289;-41
2022/06/06 10:46:29;;;;;;;3.78;3.20;;;23.60;45.40;;;;;;8301967;28;20502;-41
2022/06/06 10:51:36;;;;;;;4.40;3.45;;;23.60;45.40;;;;;;8293875;28;20042;-42
2022/06/06 10:55:38;;;;;;;3.80;3.20;;;23.60;45.40;;;;;;8301684;28;20042;-41
2022/06/06 11:00:05;;;;;;;3.42;3.13;;;23.70;45.50;;;;;;8302155;28;20503;-42
2022/06/06 11:04:34;;;;;;;3.92;3.15;;;23.70;45.50;;;;;;8301718;28;20117;-41
2022/06/06 11:09:18;;;;;;;4.13;3.30;;;23.70;45.60;;;;;;8333054;28;20525;-41
2022/06/06 11:13:56;;;;;;;3.17;2.83;;;23.70;45.70;;;;;;8333714;28;20044;-41
2022/06/06 11:18:09;;;;;;;3.63;2.88;;;23.70;45.70;;;;;;8334098;28;20038;-40
2022/06/06 11:22:38;;;;;;;3.47;2.90;;;23.70;45.70;;;;;;8333681;28;20103;-41
2022/06/06 11:26:58;;;;;;;4.07;3.08;;;23.70;45.70;;;;;;8333928;28;20490;-40
2022/06/06 11:31:14;;;;;;;3.42;2.78;;;23.80;45.80;;;;;;8333283;28;20047;-41
2022/06/06 11:35:45;;;;;;;3.10;2.80;;;23.70;45.80;;;;;;8333626;28;20041;-40
2022/06/06 11:40:21;;;;;;;2.97;2.40;;;23.80;45.80;;;;;;8333285;28;20076;-41
2022/06/06 11:44:44;;;;;;;4.40;2.28;;;23.80;45.80;;;;;;8333500;28;20045;-41
2022/06/06 11:48:47;;;;;;;3.03;2.72;;;23.80;45.90;;;;;;8332596;28;20560;-41
2022/06/06 11:53:21;;;;;;;3.45;2.65;;;23.80;45.90;;;;;;8333178;28;20060;-41
2022/06/06 11:57:39;;;;;;;3.38;2.85;;;23.80;46.00;;;;;;8332551;28;20053;-41
2022/06/06 12:02:11;;;;;;;4.47;2.72;;;23.90;46.00;;;;;;8332878;28;20497;-41
2022/06/06 12:06:48;;;;;;;2.40;2.20;;;23.90;45.90;;;;;;8332801;28;20045;-41
2022/06/06 12:11:07;;;;;;;2.00;1.80;;;23.90;45.90;;;;;;8332715;28;20574;-41
2022/06/06 12:15:27;;;;;;;2.47;2.28;;;23.90;45.90;;;;;;8332701;28;20041;-40
2022/06/06 12:19:51;;;;;;;3.10;2.25;;;24.00;46.00;;;;;;8332156;28;20112;-40
2022/06/06 12:24:10;;;;;;;2.30;2.10;;;24.00;46.00;;;;;;8331425;28;20041;-41
2022/06/06 12:28:22;;;;;;;3.20;2.45;;;24.10;46.00;;;;;;8331739;28;20058;-41
2022/06/06 12:32:52;;;;;;;2.75;1.88;;;24.10;46.00;;;;;;8331812;28;20121;-41
2022/06/06 12:36:58;;;;;;;3.25;1.95;;;24.10;46.00;;;;;;8331242;28;20414;-41
2022/06/06 12:41:24;;;;;;;2.65;2.42;;;24.10;46.00;;;;;;8331484;28;20497;-41
2022/06/06 12:45:33;;;;;;;2.33;2.13;;;24.10;46.10;;;;;;8331116;28;20037;-41
2022/06/06 12:49:51;;;;;;;2.42;1.92;;;24.20;46.20;;;;;;8331681;28;20046;-41
2022/06/06 12:54:30;;;;;;;3.95;2.40;;;24.20;46.30;;;;;;8331281;28;20046;-41
2022/06/06 12:58:44;;;;;;;3.70;2.03;;;24.20;46.30;;;;;;8330671;28;20045;-41
2022/06/06 13:02:58;;;;;;;2.70;2.42;;;24.20;46.60;;;;;;8312312;28;20062;-41
2022/06/06 13:07:19;;;;;;;2.42;2.20;;;24.30;46.50;;;;;;8298014;28;20046;-41
2022/06/06 13:11:25;;;;;;;2.47;2.22;;;24.20;46.50;;;;;;8297500;28;20046;-41
2022/06/06 13:15:40;;;;;;;2.67;2.30;;;24.30;46.50;;;;;;8297620;28;20490;-41
2022/06/06 13:19:59;;;;;;;2.60;2.40;;;24.30;46.20;;;;;;8298224;28;20050;-41
2022/06/06 13:24:29;;;;;;;2.28;2.00;;;24.30;46.60;;;;;;8325094;28;20041;-41
2022/06/06 13:28:40;;;;;;;2.85;2.22;;;24.30;46.50;;;;;;8330027;28;20573;-41
2022/06/06 13:33:14;;;;;;;3.00;2.58;;;24.30;46.50;;;;;;8314028;28;20041;-41
2022/06/06 13:37:39;;;;;;;3.97;2.50;;;24.30;46.60;;;;;;8297019;28;20061;-41
2022/06/06 13:42:08;;;;;;;2.88;2.58;;;24.30;46.70;;;;;;8297754;28;20151;-41
2022/06/06 13:46:34;;;;;;;2.63;2.33;;;24.30;47.00;;;;;;8296689;28;20133;-41
2022/06/06 13:50:39;;;;;;;3.33;2.42;;;24.30;46.90;;;;;;8297457;28;20038;-41
2022/06/06 13:54:40;;;;;;;2.45;2.25;;;24.30;47.40;;;;;;8296485;28;20038;-41
2022/06/06 13:59:03;;;;;;;2.53;2.30;;;24.30;47.30;;;;;;8296884;28;20038;-41
2022/06/06 14:03:40;;;;;;;3.50;2.25;;;24.30;47.40;;;;;;8296935;28;20521;-41
2022/06/06 14:07:52;;;;;;;2.85;2.53;;;24.30;47.30;;;;;;8297066;28;20121;-41
2022/06/06 14:12:10;;;;;;;3.45;2.85;;;24.30;47.50;;;;;;8296567;28;20415;-41
2022/06/06 14:16:23;;;;;;;3.67;2.50;;;24.30;47.40;;;;;;8296437;28;20562;-40
2022/06/06 14:20:34;;;;;;;3.25;2.30;;;24.30;47.40;;;;;;8296843;28;20030;-41
2022/06/06 14:24:36;;;;;;;;;;;24.30;47.40;;;;;;8296570;28;20061;-40
2022/06/06 14:28:40;;;;;;;3.47;2.63;;;24.30;47.50;;;;;;8296395;28;19921;-40
2022/06/06 14:32:44;;;;;;;2.55;2.35;;;24.40;47.40;;;;;;8296299;28;20044;-40
2022/06/06 14:36:46;;;;;;;3.55;2.42;;;24.40;47.70;;;;;;8295969;28;20034;-40
2022/06/06 14:41:09;;;;;;;2.50;2.30;;;24.40;47.50;;;;;;8296786;28;20462;-41
2022/06/06 14:45:16;;;;;;;2.95;2.45;;;24.40;47.50;;;;;;8296430;28;20033;-41
2022/06/06 14:49:26;;;;;;;2.88;2.20;;;24.40;47.40;;;;;;8301816;28;20046;-41
2022/06/06 14:53:32;;;;;;;2.92;2.50;;;24.40;47.30;;;;;;8302249;28;20435;-40
2022/06/06 14:57:34;;;;;;;3.85;2.30;;;24.40;47.40;;;;;;8301813;28;20029;-41
2022/06/06 15:01:35;;;;;;;3.40;3.10;;;24.40;47.40;;;;;;8302422;28;20030;-41
2022/06/06 15:05:37;;;;;;;3.45;2.35;;;24.40;47.40;;;;;;8302538;28;20084;-41
2022/06/06 15:09:56;;;;;;;3.03;2.60;;;24.40;47.10;;;;;;8301185;28;20030;-41
2022/06/06 15:14:00;;;;;;;3.08;2.78;;;24.50;46.90;;;;;;8301927;28;20175;-41
2022/06/06 15:18:01;;;;;;;2.97;2.35;;;24.50;47.10;;;;;;8301444;28;20456;-41
2022/06/06 15:22:03;;;;;;;3.13;2.50;;;24.50;47.20;;;;;;8300883;28;20084;-41
2022/06/06 15:26:43;;;;;;;3.97;2.55;;;24.50;47.10;;;;;;8301587;28;20066;-41
2022/06/06 15:30:56;;;;;;;3.05;2.42;;;24.50;47.10;;;;;;8292422;28;20052;-41
2022/06/06 15:35:43;;;;;;;2.83;2.30;;;24.50;47.00;;;;;;8329320;28;20476;-40
2022/06/06 15:40:02;;;;;;;3.22;2.70;;;24.50;47.00;;;;;;8275323;28;20120;-40
2022/06/06 15:44:23;;;;;;;2.20;2.00;;;24.50;46.80;;;;;;8300641;28;20438;-41
2022/06/06 15:48:41;;;;;;;2.55;2.30;;;24.50;47.10;;;;;;8299872;28;20037;-41
2022/06/06 15:52:48;;;;;;;2.67;2.42;;;24.50;47.00;;;;;;8299041;28;20117;-41
2022/06/06 15:57:00;;;;;;;2.38;2.00;;;24.50;47.20;;;;;;8299583;28;20045;-41
2022/06/06 16:01:15;;;;;;;2.70;2.00;;;24.50;47.20;;;;;;8298872;28;20034;-42
2022/06/06 16:05:25;;;;;;;2.33;2.13;;;24.50;47.20;;;;;;8300501;28;20443;-42
2022/06/06 16:09:39;;;;;;;4.87;2.57;;;24.50;47.10;;;;;;8299388;28;20050;-42
2022/06/06 16:13:59;;;;;;;2.20;2.00;;;24.50;47.10;;;;;;8300023;28;20104;-42
2022/06/06 16:18:16;;;;;;;2.45;2.13;;;24.60;47.20;;;;;;8299822;28;20038;-40
2022/06/06 16:22:39;;;;;;;3.55;2.38;;;24.60;47.60;;;;;;8299285;28;20034;-41
2022/06/06 16:26:55;;;;;;;2.00;1.80;;;24.60;47.00;;;;;;8299523;28;20112;-41
2022/06/06 16:30:58;;;;;;;2.30;2.00;;;24.60;47.10;;;;;;8299103;28;20050;-42
2022/06/06 16:35:20;;;;;;;2.47;2.00;;;24.60;47.10;;;;;;8324234;28;20048;-41
2022/06/06 16:39:30;;;;;;;4.45;2.05;;;24.60;47.30;;;;;;8331119;28;20521;-41
2022/06/06 16:48:15;;;;;;;1.80;1.70;;;24.60;47.30;;;;;;8330214;28;20045;-41
2022/06/06 16:52:28;;;;;;;2.40;2.00;;;24.50;47.40;;;;;;8331189;28;20475;-41
2022/06/06 16:56:50;;;;;;;1.98;1.75;;;24.50;47.30;;;;;;8331429;28;20277;-41
2022/06/06 17:01:35;;;;;;;2.15;1.80;;;24.50;47.40;;;;;;8330641;28;20042;-40
2022/06/06 17:10:16;;;;;;;1.88;1.77;;;24.50;47.50;;;;;;8297171;28;20052;-41
2022/06/06 17:14:29;;;;;;;2.15;1.95;;;24.50;47.50;;;;;;8297877;28;20042;-40
2022/06/06 17:18:34;;;;;;;1.90;1.67;;;24.50;47.40;;;;;;8297420;28;20048;-41
2022/06/06 17:22:34;;;;;;;2.53;2.08;;;24.50;47.40;;;;;;8297896;28;20064;-40
2022/06/06 17:26:40;;;;;;;2.00;1.75;;;24.50;47.50;;;;;;8297825;28;20117;-41
2022/06/06 17:30:47;;;;;;;1.80;1.70;;;24.50;47.50;;;;;;8296931;28;20049;-41
2022/06/06 17:35:15;;;;;;;1.88;1.67;;;24.50;47.40;;;;;;8297393;28;20038;-40
2022/06/06 17:39:19;;;;;;;2.15;1.80;;;24.50;47.30;;;;;;8287706;28;20038;-40
2022/06/06 17:43:42;;;;;;;2.63;2.17;;;24.50;47.40;;;;;;8297640;28;20100;-41
2022/06/06 17:48:02;;;;;;;2.38;1.83;;;24.50;47.30;;;;;;8297717;28;20030;-42
2022/06/06 17:52:25;;;;;;;2.38;1.88;;;24.50;47.20;;;;;;8296750;28;20073;-41
2022/06/06 17:56:45;;;;;;;1.88;1.50;;;24.50;47.20;;;;;;8296886;28;20176;-41
2022/06/06 18:00:57;;;;;;;1.70;1.60;;;24.50;47.20;;;;;;8296537;28;20450;-40
2022/06/06 18:05:23;;;;;;;1.75;1.65;;;24.50;47.10;;;;;;8297124;28;20045;-41
2022/06/06 18:09:32;;;;;;;2.00;1.80;;;24.50;47.20;;;;;;8296351;28;20410;-42
2022/06/06 18:14:02;;;;;;;1.73;1.60;;;24.40;47.10;;;;;;8296737;28;20502;-42
2022/06/06 18:18:14;;;;;;;2.25;2.05;;;24.50;47.10;;;;;;8296670;28;20034;-42
2022/06/06 18:22:28;;;;;;;2.00;1.80;;;24.50;47.00;;;;;;8300129;28;20056;-42
2022/06/06 18:26:41;;;;;;;2.05;1.73;;;24.50;46.80;;;;;;8302985;28;20569;-42
2022/06/06 18:30:49;;;;;;;1.90;1.70;;;24.40;46.70;;;;;;8302711;28;20046;-41
2022/06/06 18:35:18;;;;;;;1.58;1.48;;;24.50;46.70;;;;;;8302745;28;20045;-42
2022/06/06 18:39:22;;;;;;;1.77;1.65;;;24.40;46.60;;;;;;8302308;28;20113;-41
2022/06/06 18:43:26;;;;;;;1.60;1.50;;;24.40;46.50;;;;;;8302800;28;20033;-41
2022/06/06 18:47:31;;;;;;;2.20;2.00;;;24.50;46.60;;;;;;8302689;28;20030;-41
2022/06/06 18:51:40;;;;;;;2.63;1.52;;;24.40;46.50;;;;;;8301669;28;20070;-41
2022/06/06 18:55:48;;;;;;;2.70;2.20;;;24.50;46.60;;;;;;8302757;28;20113;-41
2022/06/06 18:59:58;;;;;;;1.65;1.55;;;24.40;46.40;;;;;;8302126;28;20042;-41
2022/06/06 19:04:10;;;;;;;2.00;1.80;;;24.40;46.30;;;;;;8301477;28;20034;-40
2022/06/06 19:08:22;;;;;;;2.88;2.13;;;24.40;46.40;;;;;;8301830;28;20121;-40
2022/06/06 19:12:27;;;;;;;2.17;1.98;;;24.40;46.20;;;;;;8301462;28;20511;-40
2022/06/06 19:16:33;;;;;;;4.40;2.10;;;24.40;46.20;;;;;;8301509;28;20042;-40
2022/06/06 19:20:58;;;;;;;3.40;2.42;;;24.40;46.10;;;;;;8301467;28;20038;-40
2022/06/06 19:25:01;;;;;;;2.70;2.50;;;24.40;46.10;;;;;;8290912;28;20046;-40
2022/06/06 19:29:13;;;;;;;2.55;2.35;;;24.40;46.10;;;;;;8300959;28;20052;-41
2022/06/06 19:33:28;;;;;;;3.42;2.05;;;24.30;46.00;;;;;;8300359;28;20104;-40
2022/06/06 19:37:34;;;;;;;2.60;2.35;;;24.30;45.90;;;;;;8301152;28;20034;-40
2022/06/06 19:41:35;;;;;;;3.25;2.33;;;24.40;46.00;;;;;;8300663;28;20034;-41
2022/06/06 19:45:45;;;;;;;3.92;2.10;;;24.40;45.90;;;;;;8300159;28;20056;-41
2022/06/06 19:49:47;;;;;;;2.60;2.10;;;24.30;45.90;;;;;;8300508;28;20502;-41
2022/06/06 19:53:53;;;;;;;2.47;2.17;;;24.30;45.80;;;;;;8300461;28;20419;-40
2022/06/06 19:57:54;;;;;;;3.90;2.10;;;24.30;45.90;;;;;;8300090;28;20042;-40
2022/06/06 20:01:59;;;;;;;2.35;2.10;;;24.30;45.80;;;;;;8300090;28;20037;-40
2022/06/06 20:06:03;;;;;;;2.13;1.92;;;24.30;45.80;;;;;;8300570;28;20045;-41
2022/06/06 20:10:26;;;;;;;2.33;2.10;;;24.30;45.80;;;;;;8299384;28;20453;-41
2022/06/06 20:14:34;;;;;;;1.90;1.80;;;24.30;45.80;;;;;;8299817;28;20457;-41
2022/06/06 20:18:35;;;;;;;2.17;1.80;;;24.30;45.80;;;;;;8299214;28;20030;-41
2022/06/06 20:22:36;;;;;;;2.53;2.33;;;24.30;45.80;;;;;;8299783;28;20049;-41
2022/06/06 20:26:40;;;;;;;2.55;1.98;;;24.30;45.80;;;;;;8299238;28;20042;-41
2022/06/06 20:35:13;;;;;;;2.72;2.35;;;24.30;45.70;;;;;;8299456;28;20049;-41
2022/06/06 20:39:15;;;;;;;2.83;2.20;;;24.30;45.80;;;;;;8298628;28;20491;-41
2022/06/06 20:43:49;;;;;;;2.38;2.17;;;24.20;45.70;;;;;;8298583;28;20137;-41
2022/06/06 20:47:51;;;;;;;2.63;2.15;;;24.30;46.00;;;;;;8297538;28;20030;-41
2022/06/06 20:51:54;;;;;;;3.83;2.33;;;24.30;45.70;;;;;;8297988;28;20042;-42
2022/06/06 20:56:27;;;;;;;2.28;1.90;;;24.30;45.70;;;;;;8298424;28;20057;-42
2022/06/06 21:00:27;;;;;;;2.55;2.05;;;24.20;45.70;;;;;;8295879;28;20106;-42
2022/06/06 21:04:28;;;;;;;2.38;2.17;;;24.20;45.70;;;;;;8298449;28;20046;-42
2022/06/06 21:08:50;;;;;;;2.25;2.05;;;24.20;45.60;;;;;;8298749;28;20057;-42
2022/06/06 21:12:53;;;;;;;2.50;2.22;;;24.20;45.70;;;;;;8298131;28;20034;-42
2022/06/06 21:16:53;;;;;;;2.58;1.85;;;24.20;45.60;;;;;;8323648;28;20037;-42
2022/06/06 21:20:54;;;;;;;2.85;2.30;;;24.20;45.70;;;;;;8330762;28;20103;-42
2022/06/06 21:24:56;;;;;;;2.38;2.08;;;24.20;45.60;;;;;;8330102;28;20087;-42
2022/06/06 21:28:57;;;;;;;2.03;1.83;;;24.20;45.70;;;;;;8330483;28;20044;-42
2022/06/06 21:32:57;;;;;;;2.53;1.92;;;24.10;45.60;;;;;;8330642;28;20030;-42
2022/06/06 21:36:58;;;;;;;2.30;2.00;;;24.20;45.70;;;;;;8329742;28;20040;-42
2022/06/06 21:40:59;;;;;;;2.13;2.00;;;24.10;45.60;;;;;;8330343;28;20099;-42
2022/06/06 21:44:59;;;;;;;2.33;1.90;;;24.20;45.60;;;;;;8330294;28;20091;-42
2022/06/06 21:49:00;;;;;;;2.08;1.98;;;24.10;45.60;;;;;;8329738;28;20049;-42
2022/06/06 21:53:01;;;;;;;1.85;1.70;;;24.10;45.60;;;;;;8330306;28;20029;-42
2022/06/06 21:57:04;;;;;;;1.83;1.50;;;24.10;45.60;;;;;;8329682;28;20034;-42
2022/06/06 22:01:07;;;;;;;2.28;2.00;;;24.10;45.60;;;;;;8328319;28;20387;-42
2022/06/06 22:05:08;;;;;;;2.42;1.70;;;24.10;45.60;;;;;;8330144;28;20456;-42
2022/06/06 22:09:10;;;;;;;1.80;1.70;;;24.10;45.40;;;;;;8361176;28;20056;-42
2022/06/06 22:13:11;;;;;;;3.10;1.85;;;24.10;45.40;;;;;;8322332;28;20061;-42
2022/06/06 22:17:11;;;;;;;2.17;1.70;;;24.10;45.40;;;;;;8329710;28;20045;-42
2022/06/06 22:21:12;;;;;;;1.63;1.52;;;24.10;45.30;;;;;;8329616;28;20280;-42
2022/06/06 22:25:13;;;;;;;1.70;1.60;;;24.10;45.20;;;;;;8329846;28;20061;-42
2022/06/06 22:29:13;;;;;;;1.67;1.55;;;24.10;45.30;;;;;;8329895;28;20427;-42
2022/06/06 22:33:14;;;;;;;1.95;1.60;;;24.00;45.20;;;;;;8329063;28;20044;-42